Información del aeropuerto LEVC

Información de pista
Pista 04 Longitud 5394 ft Anchura 148 ft
Elevación 205 ft Umbral 0 ft Rumbo 38
Pista 22 Longitud 5394 ft Anchura 148 ft
Elevación 188 ft Umbral 0 ft Rumbo 218
Pista 12 Longitud 8858 ft Anchura 148 ft
Elevación 225 ft Umbral 0 ft Rumbo 116
Pista 30 Longitud 8858 ft Anchura 148 ft
Elevación 172 ft Umbral 0 ft Rumbo 296
Frecuencias del aeropuerto
Tipo APP Nombre APP Frecuencia 120.1 MHZ
Tipo ATIS Nombre ATIS Frecuencia 121.075 MHZ
Tipo GND Nombre GND Frecuencia 121.7 MHZ
Tipo TWR Nombre TWR Frecuencia 118.55 MHZ
Radioayudas del aeropuerto
Tipo NDB Nombre Valencia Frecuencia 400 KHZ
Tipo NDB Nombre Valencia Frecuencia 340 KHZ
Tipo NDB Nombre Sagunto Frecuencia 356 KHZ
Tipo VOR-DME Nombre Valencia Frecuencia 116100 KHZ
Información meteorológica del aeropuerto y NOTAM
ADDS - METARS form results

(0446 UTC 22 September 2021)
Data provider http://aviationweather.gov/metar/data/
 
METAR text: LEVC 220430Z 32004KT 9999 FEW040 17/15 Q1020 NOSIG
Conditions at: LEVC (VALENCIA (CIV/MI, ES) observed 0430 UTC 22 September 2021
Temperature: 17.0°C (63°F)
Dewpoint: 15.0°C (59°F) [RH = 88%]
Pressure (altimeter): 30.12 inches Hg (1020.0 mb)
Winds: from the NW (320 degrees) at 5 MPH (4 knots; 2.1 m/s)
Visibility: 6 or more miles (10+ km)
Ceiling: at least 12,000 feet AGL
Clouds: few clouds at 4000 feet AGL
Weather: no significant weather observed at this time

METAR text: LEVC 220400Z 29005KT 9999 SCT040 16/15 Q1020 NOSIG
Conditions at: LEVC (VALENCIA (CIV/MI, ES) observed 0400 UTC 22 September 2021
Temperature: 16.0°C (61°F)
Dewpoint: 15.0°C (59°F) [RH = 94%]
Pressure (altimeter): 30.12 inches Hg (1020.0 mb)
Winds: from the WNW (290 degrees) at 6 MPH (5 knots; 2.6 m/s)
Visibility: 6 or more miles (10+ km)
Ceiling: at least 12,000 feet AGL
Clouds: scattered clouds at 4000 feet AGL
Weather: no significant weather observed at this time

Forecast for: AMD
Text: TAF AMD LEVC 220103Z 2201/2224 36008KT 9999 FEW025 TX24/2213Z TN16/2206Z
Forecast period: 0100 UTC 22 September 2021 to 0000 UTC 23 September 2021
Forecast type: FROM: standard forecast or significant change
Winds: from the N (360 degrees) at 9 MPH (8 knots; 4.1 m/s)
Visibility: 6 or more miles (10+ km)
Ceiling: at least 12,000 feet AGL
Clouds: few clouds at 2500 feet AGL
Weather: no significant weather forecast for this period
Text: PROB40
Forecast period: 0100 to 0400 UTC 22 September 2021
Forecast type: TEMPORARY: The following changes expected for less than half the time period
Visibility: 2.49 miles (4.01 km)
Ceiling: at least 12,000 feet AGL
Clouds: few clouds at 3000 feet AGL
Weather: SHRA  (rain showers)
Text: TEMPO 2201/2204 4000 SHRA FEW030CB
Forecast period: 0200 to 1500 UTC 22 September 2021
Forecast type: TEMPORARY: The following changes expected for less than half the time period
Visibility: 2.49 miles (4.01 km)
Ceiling: at least 12,000 feet AGL
Clouds: few clouds at 3000 feet AGL
Weather: TSRA  (rain associated with thunderstorm(s))